createdAt,value
2018-10-06T00:03:20.171Z,10.66
2018-10-06T00:08:13.533Z,10.66
2018-10-06T00:13:06.918Z,10.78
2018-10-06T00:18:00.310Z,10.77
2018-10-06T00:22:55.656Z,10.81
2018-10-06T00:27:49.504Z,10.82
2018-10-06T00:32:44.202Z,10.91
2018-10-06T00:37:37.588Z,10.83
2018-10-06T00:42:31.454Z,10.87
2018-10-06T00:47:24.933Z,11.00
2018-10-06T00:52:18.206Z,10.95
2018-10-06T00:57:11.699Z,10.97
2018-10-06T01:02:05.073Z,11.11
2018-10-06T01:06:58.451Z,11.26
2018-10-06T01:11:51.700Z,11.18
2018-10-06T01:16:45.101Z,11.16
2018-10-06T01:21:38.882Z,11.29
2018-10-06T01:26:32.299Z,11.27
2018-10-06T01:31:26.938Z,11.34
2018-10-06T01:36:21.061Z,11.50
2018-10-06T01:41:14.650Z,11.42
2018-10-06T01:46:08.055Z,11.57
2018-10-06T01:51:02.524Z,11.54
2018-10-06T01:55:55.831Z,11.41
2018-10-06T02:00:49.625Z,11.49
2018-10-06T02:05:43.026Z,11.39
2018-10-06T02:10:36.372Z,11.42
2018-10-06T02:15:30.271Z,11.46
2018-10-06T02:20:23.625Z,11.43
2018-10-06T02:25:16.995Z,11.56
2018-10-06T02:30:11.554Z,11.60
2018-10-06T02:35:04.712Z,11.49
2018-10-06T02:39:58.310Z,11.55
2018-10-06T02:44:51.684Z,11.48
2018-10-06T02:49:45.039Z,11.53
2018-10-06T02:54:38.352Z,11.49
2018-10-06T02:59:31.844Z,11.50
2018-10-06T03:04:25.118Z,11.71
2018-10-06T03:09:18.377Z,11.60
2018-10-06T03:14:11.664Z,11.73
2018-10-06T03:19:05.102Z,11.71
2018-10-06T03:23:58.451Z,11.67
2018-10-06T03:28:51.719Z,11.66
2018-10-06T03:33:45.050Z,11.60
2018-10-06T03:38:38.387Z,11.68
2018-10-06T03:43:31.529Z,11.76
2018-10-06T03:48:24.702Z,11.73
2018-10-06T03:53:17.882Z,11.70
2018-10-06T03:58:11.260Z,11.72
2018-10-06T04:03:04.414Z,11.82
2018-10-06T04:07:57.736Z,11.99
2018-10-06T04:12:51.048Z,11.83
2018-10-06T04:17:44.262Z,11.90
2018-10-06T04:22:37.406Z,11.79
2018-10-06T04:27:30.623Z,11.64
2018-10-06T04:32:24.117Z,11.73
2018-10-06T04:37:17.629Z,11.78
2018-10-06T04:42:10.807Z,11.89
2018-10-06T04:47:04.046Z,11.94
2018-10-06T04:51:57.420Z,11.93
2018-10-06T04:56:50.801Z,12.04
2018-10-06T05:01:44.153Z,12.07
2018-10-06T05:06:37.377Z,12.32
2018-10-06T05:11:30.614Z,12.41
2018-10-06T05:16:23.856Z,12.75
2018-10-06T05:21:17.251Z,12.93
2018-10-06T05:26:10.390Z,12.89
2018-10-06T05:31:04.618Z,12.75
2018-10-06T05:35:57.863Z,12.84
2018-10-06T05:40:51.467Z,12.96
2018-10-06T05:45:44.769Z,13.15
2018-10-06T05:50:38.018Z,13.18
2018-10-06T05:55:31.225Z,13.28
2018-10-06T06:00:25.012Z,13.54
2018-10-06T06:05:18.237Z,13.76
2018-10-06T06:10:12.140Z,14.03
2018-10-06T06:15:05.693Z,14.17
2018-10-06T06:19:58.894Z,14.20
2018-10-06T06:24:52.130Z,14.37
2018-10-06T06:29:45.300Z,14.76
2018-10-06T06:34:38.650Z,14.90
2018-10-06T06:39:31.843Z,15.16
2018-10-06T06:44:25.312Z,15.44
2018-10-06T06:49:18.574Z,15.61
2018-10-06T06:54:11.831Z,15.62
2018-10-06T06:59:05.174Z,15.82
2018-10-06T07:03:58.468Z,15.87
2018-10-06T07:08:51.763Z,16.09
2018-10-06T07:13:45.165Z,16.30
2018-10-06T07:18:41.954Z,16.31
2018-10-06T07:23:35.334Z,16.06
2018-10-06T07:28:28.859Z,16.13
2018-10-06T07:33:23.767Z,15.87
2018-10-06T07:38:17.218Z,15.84
2018-10-06T07:43:10.399Z,16.22
2018-10-06T07:48:03.761Z,16.37
2018-10-06T07:52:57.326Z,16.23
2018-10-06T07:57:50.565Z,16.01
2018-10-06T08:02:46.299Z,16.07
2018-10-06T08:07:39.637Z,16.33
2018-10-06T08:12:33.034Z,16.42
2018-10-06T08:17:26.615Z,16.54
2018-10-06T08:22:19.803Z,16.29
2018-10-06T08:27:13.299Z,16.40
2018-10-06T08:32:06.942Z,16.16
2018-10-06T08:37:00.412Z,16.23
2018-10-06T08:41:53.935Z,16.46
2018-10-06T08:46:47.297Z,16.56
2018-10-06T08:51:40.552Z,16.37
2018-10-06T08:56:33.923Z,16.60
2018-10-06T09:01:27.214Z,16.58
2018-10-06T09:06:20.712Z,16.71
2018-10-06T09:11:14.211Z,16.83
2018-10-06T09:16:07.662Z,16.58
2018-10-06T09:21:00.953Z,16.41
2018-10-06T09:25:54.118Z,16.53
2018-10-06T09:30:47.496Z,16.94
2018-10-06T09:35:40.725Z,17.25
2018-10-06T09:40:34.076Z,16.99
2018-10-06T09:45:27.278Z,16.81
2018-10-06T09:50:20.563Z,17.01
2018-10-06T09:55:13.779Z,17.02
2018-10-06T10:00:07.355Z,16.93
2018-10-06T10:05:09.107Z,16.64
2018-10-06T10:10:04.752Z,16.75
2018-10-06T10:14:57.981Z,16.83
2018-10-06T10:19:51.293Z,16.74
2018-10-06T10:24:44.527Z,16.57
2018-10-06T10:29:41.537Z,16.71
2018-10-06T10:34:34.884Z,16.88
2018-10-06T10:39:28.316Z,17.00
2018-10-06T10:44:21.679Z,17.21
2018-10-06T10:49:14.822Z,17.44
2018-10-06T10:54:08.027Z,17.53
2018-10-06T10:59:01.298Z,17.24
2018-10-06T11:03:54.653Z,17.35
2018-10-06T11:08:47.758Z,17.56
2018-10-06T11:13:41.021Z,17.57
2018-10-06T11:18:34.330Z,17.50
2018-10-06T11:23:27.646Z,17.51
2018-10-06T11:28:21.072Z,17.72
2018-10-06T11:33:14.318Z,17.74
2018-10-06T11:38:07.745Z,17.50
2018-10-06T11:43:00.964Z,17.72
2018-10-06T11:47:54.122Z,17.95
2018-10-06T11:52:47.292Z,17.80
2018-10-06T11:57:40.562Z,17.78
2018-10-06T12:02:33.753Z,17.80
2018-10-06T12:07:26.976Z,17.86
2018-10-06T12:12:20.196Z,17.85
2018-10-06T12:17:13.489Z,18.04
2018-10-06T12:22:06.774Z,18.18
2018-10-06T12:27:00.034Z,18.34
2018-10-06T12:31:53.416Z,18.00
2018-10-06T12:36:46.700Z,18.07
2018-10-06T12:41:40.048Z,18.19
2018-10-06T12:46:33.215Z,18.33
2018-10-06T12:51:26.534Z,18.14
2018-10-06T12:56:20.002Z,18.35
2018-10-06T13:01:13.281Z,18.54
2018-10-06T13:06:06.565Z,18.33
2018-10-06T13:11:00.042Z,18.39
2018-10-06T13:15:53.255Z,18.52
2018-10-06T13:20:46.434Z,18.31
2018-10-06T13:25:39.622Z,18.38
2018-10-06T13:30:32.766Z,18.31
2018-10-06T13:35:25.945Z,18.20
2018-10-06T13:40:19.312Z,18.19
2018-10-06T13:45:12.868Z,18.26
2018-10-06T13:50:06.006Z,18.29
2018-10-06T13:54:59.221Z,18.37
2018-10-06T13:59:52.678Z,18.15
2018-10-06T14:04:45.804Z,18.07
2018-10-06T14:09:39.121Z,18.09
2018-10-06T14:14:32.307Z,17.92
2018-10-06T14:19:25.633Z,17.75
2018-10-06T14:24:18.875Z,17.76
2018-10-06T14:29:12.066Z,17.66
2018-10-06T14:34:05.652Z,17.59
2018-10-06T14:38:58.914Z,17.53
2018-10-06T14:43:53.346Z,17.44
2018-10-06T14:48:46.590Z,17.26
2018-10-06T14:53:39.827Z,17.18
2018-10-06T14:58:33.096Z,16.99
2018-10-06T15:03:26.300Z,16.88
2018-10-06T15:08:20.731Z,16.91
2018-10-06T15:13:13.905Z,16.75
2018-10-06T15:18:07.303Z,16.50
2018-10-06T15:23:01.202Z,16.42
2018-10-06T15:27:54.544Z,16.25
2018-10-06T15:32:47.915Z,16.05
2018-10-06T15:37:41.367Z,15.90
2018-10-06T15:42:34.574Z,15.82
2018-10-06T15:47:27.896Z,15.59
2018-10-06T15:52:21.234Z,15.51
2018-10-06T15:57:14.509Z,15.40
2018-10-06T16:02:07.666Z,15.10
2018-10-06T16:07:00.875Z,14.95
2018-10-06T16:11:54.167Z,14.80
2018-10-06T16:16:47.541Z,14.75
2018-10-06T16:21:40.942Z,14.53
2018-10-06T16:26:34.107Z,14.46
2018-10-06T16:31:27.425Z,14.37
2018-10-06T16:36:20.714Z,14.16
2018-10-06T16:41:14.055Z,13.99
2018-10-06T16:46:07.619Z,13.98
2018-10-06T16:51:01.836Z,13.82
2018-10-06T16:55:55.124Z,13.71
2018-10-06T17:00:48.402Z,13.59
2018-10-06T17:05:41.672Z,13.50
2018-10-06T17:10:34.968Z,13.51
2018-10-06T17:15:28.572Z,13.50
2018-10-06T17:20:21.967Z,13.53
2018-10-06T17:25:15.580Z,13.47
2018-10-06T17:30:08.921Z,13.37
2018-10-06T17:35:02.199Z,13.31
2018-10-06T17:39:55.547Z,13.28
2018-10-06T17:44:49.216Z,13.18
2018-10-06T17:49:42.738Z,13.17
2018-10-06T17:54:36.128Z,13.03
2018-10-06T17:59:29.950Z,12.92
2018-10-06T18:04:23.343Z,12.67
2018-10-06T18:09:16.875Z,12.28
2018-10-06T18:14:10.302Z,12.03
2018-10-06T18:19:03.622Z,11.97
2018-10-06T18:23:57.134Z,11.81
2018-10-06T18:28:51.429Z,11.86
2018-10-06T18:33:45.147Z,11.70
2018-10-06T18:38:38.464Z,11.60
2018-10-06T18:43:31.934Z,11.51
2018-10-06T18:48:25.833Z,11.59
2018-10-06T18:53:19.166Z,11.39
2018-10-06T18:58:12.755Z,11.40
2018-10-06T19:03:06.289Z,11.37
2018-10-06T19:07:59.506Z,11.35
2018-10-06T19:12:52.989Z,11.28
2018-10-06T19:17:46.239Z,11.51
2018-10-06T19:22:39.619Z,11.54
2018-10-06T19:27:32.922Z,11.73
2018-10-06T19:32:26.242Z,11.80
2018-10-06T19:37:19.493Z,11.98
2018-10-06T19:42:12.829Z,11.86
2018-10-06T19:47:06.161Z,11.78
2018-10-06T19:51:59.575Z,11.86
2018-10-06T19:56:52.723Z,11.93
2018-10-06T20:01:46.065Z,12.16
2018-10-06T20:06:39.335Z,12.29
2018-10-06T20:11:33.498Z,12.39
2018-10-06T20:16:26.884Z,12.35
2018-10-06T20:21:20.490Z,12.40
2018-10-06T20:26:14.205Z,12.22
2018-10-06T20:31:08.086Z,12.23
2018-10-06T20:36:01.748Z,12.32
2018-10-06T20:40:55.484Z,12.42
2018-10-06T20:45:51.089Z,12.33
2018-10-06T20:50:45.855Z,12.27
2018-10-06T20:55:40.330Z,12.23
2018-10-06T21:00:33.978Z,12.17
2018-10-06T21:05:27.985Z,12.35
2018-10-06T21:10:23.201Z,12.50
2018-10-06T21:15:16.427Z,12.51
2018-10-06T21:20:10.771Z,12.62
2018-10-06T21:25:04.257Z,12.62
2018-10-06T21:29:57.492Z,12.66
2018-10-06T21:34:50.817Z,12.51
2018-10-06T21:39:44.081Z,12.68
2018-10-06T21:44:37.404Z,12.77
2018-10-06T21:49:30.786Z,12.75
2018-10-06T21:54:24.000Z,12.53
2018-10-06T21:59:17.376Z,12.51
2018-10-06T22:04:10.615Z,12.63
2018-10-06T22:09:04.053Z,12.44
2018-10-06T22:13:57.327Z,12.54
2018-10-06T22:18:50.718Z,12.67
2018-10-06T22:23:44.069Z,12.87
2018-10-06T22:28:37.311Z,12.84
2018-10-06T22:33:30.642Z,12.87
2018-10-06T22:38:23.966Z,12.91
2018-10-06T22:43:17.386Z,12.91
2018-10-06T22:48:10.731Z,12.96
2018-10-06T22:53:04.095Z,13.02
2018-10-06T22:57:57.406Z,13.03
2018-10-06T23:02:50.624Z,12.99
2018-10-06T23:07:43.974Z,13.02
2018-10-06T23:12:37.296Z,13.00
2018-10-06T23:17:30.515Z,12.92
2018-10-06T23:22:24.005Z,12.95
2018-10-06T23:27:17.169Z,13.10
2018-10-06T23:32:10.310Z,13.08
2018-10-06T23:37:03.507Z,13.03
2018-10-06T23:41:56.747Z,13.09
2018-10-06T23:46:50.070Z,13.20
2018-10-06T23:51:43.423Z,13.27
2018-10-06T23:56:36.592Z,13.25
